Time;durP1;ratioP1;P1;durP2;ratioP2;P2;SDS_P1;SDS_P2;PMS_P1;PMS_P2;Temp;Humidity;BMP_temperature;BMP_pressure;BME280_temperature;BME280_humidity;BME280_pressure;Samples;Min_cycle;Max_cycle;Signal;HPM_P1;HPM_P2
2022/06/24 00:02:19;;;;;;;1.75;1.50;;;23.90;98.70;;;;;;5013675;28;20022;-63
2022/06/24 00:04:51;;;;;;;1.20;1.10;;;23.90;98.80;;;;;;5013585;28;20384;-62
2022/06/24 00:07:17;;;;;;;0.95;0.95;;;23.90;98.50;;;;;;5013591;28;20030;-62
2022/06/24 00:09:44;;;;;;;1.50;1.25;;;23.90;98.60;;;;;;5013487;28;20492;-64
2022/06/24 00:12:12;;;;;;;1.30;1.20;;;23.90;98.80;;;;;;5013688;28;20050;-63
2022/06/24 00:14:40;;;;;;;1.95;1.27;;;23.90;98.90;;;;;;5013388;28;20030;-65
2022/06/24 00:17:08;;;;;;;1.77;1.30;;;23.90;99.00;;;;;;5013659;28;20049;-63
2022/06/24 00:19:50;;;;;;;1.85;1.52;;;23.80;99.60;;;;;;5013271;28;20384;-61
2022/06/24 00:22:16;;;;;;;2.15;1.33;;;23.80;99.90;;;;;;5013308;28;20038;-62
2022/06/24 00:24:41;;;;;;;1.50;1.40;;;23.80;99.90;;;;;;5013587;28;20105;-62
2022/06/24 00:27:18;;;;;;;3.20;1.92;;;23.70;99.90;;;;;;5013183;28;20384;-63
2022/06/24 00:29:44;;;;;;;3.08;1.50;;;23.60;99.90;;;;;;5013291;28;20026;-64
2022/06/24 00:32:09;;;;;;;1.70;1.60;;;23.50;99.90;;;;;;5013097;28;20492;-65
2022/06/24 00:34:37;;;;;;;1.63;1.52;;;23.50;99.90;;;;;;5013340;28;20033;-62
2022/06/24 00:37:25;;;;;;;1.90;1.80;;;23.50;99.90;;;;;;5013224;28;20049;-62
2022/06/24 00:40:19;;;;;;;1.70;1.60;;;23.60;99.90;;;;;;5013926;28;20172;-63
2022/06/24 00:42:46;;;;;;;2.15;1.80;;;23.50;99.90;;;;;;5016714;28;20022;-63
2022/06/24 00:45:21;;;;;;;2.10;1.90;;;23.40;99.90;;;;;;5016888;28;20030;-64
2022/06/24 00:47:48;;;;;;;1.80;1.70;;;23.30;99.90;;;;;;5016680;28;20026;-61
2022/06/24 00:50:22;;;;;;;1.83;1.73;;;23.20;99.90;;;;;;5016802;28;20422;-64
2022/06/24 00:52:51;;;;;;;2.35;2.05;;;23.20;99.90;;;;;;5016761;28;20029;-62
2022/06/24 00:55:23;;;;;;;1.88;1.77;;;23.10;99.90;;;;;;5016991;28;20030;-63
2022/06/24 00:57:49;;;;;;;1.88;1.70;;;23.10;99.90;;;;;;5016561;28;20049;-62
2022/06/24 01:00:15;;;;;;;2.03;1.63;;;23.10;99.90;;;;;;5016928;28;20030;-62
2022/06/24 01:02:42;;;;;;;1.42;1.33;;;23.10;99.90;;;;;;5016262;28;20018;-64
2022/06/24 01:05:09;;;;;;;1.50;1.40;;;23.10;99.90;;;;;;5016969;28;20076;-64
2022/06/24 01:07:39;;;;;;;1.90;1.55;;;23.10;99.90;;;;;;5016625;28;20040;-63
2022/06/24 01:10:10;;;;;;;1.80;1.70;;;23.10;99.90;;;;;;5016408;28;20049;-62
2022/06/24 01:12:36;;;;;;;2.10;1.90;;;22.90;99.90;;;;;;5016389;28;20259;-62
2022/06/24 01:15:03;;;;;;;1.70;1.50;;;22.90;99.90;;;;;;5016379;28;20082;-62
2022/06/24 01:17:29;;;;;;;1.70;1.60;;;23.00;99.90;;;;;;5016361;28;20022;-62
2022/06/24 01:19:55;;;;;;;2.42;1.92;;;23.00;99.90;;;;;;5016293;28;20022;-62
2022/06/24 01:22:24;;;;;;;1.70;1.60;;;23.00;99.90;;;;;;5016282;28;20045;-63
2022/06/24 01:24:51;;;;;;;3.28;1.65;;;23.10;99.90;;;;;;5016051;28;20022;-63
2022/06/24 01:27:17;;;;;;;1.35;1.25;;;23.10;99.90;;;;;;5016171;28;20022;-62
2022/06/24 01:29:44;;;;;;;2.25;2.00;;;23.10;99.90;;;;;;5015913;28;20105;-62
2022/06/24 01:32:10;;;;;;;3.30;3.00;;;23.10;99.90;;;;;;5016004;28;20022;-62
2022/06/24 01:34:36;;;;;;;3.30;2.40;;;22.70;99.90;;;;;;5016054;28;20049;-63
2022/06/24 01:37:03;;;;;;;2.17;1.95;;;22.40;99.90;;;;;;5015944;28;20018;-62
2022/06/24 01:39:29;;;;;;;2.20;2.00;;;22.40;99.90;;;;;;5015862;28;20168;-63
2022/06/24 01:41:55;;;;;;;2.50;2.30;;;22.50;99.90;;;;;;5016111;28;20030;-62
2022/06/24 01:44:22;;;;;;;2.33;2.20;;;22.70;99.90;;;;;;5015648;28;20032;-63
2022/06/24 01:46:48;;;;;;;2.28;2.10;;;22.70;99.90;;;;;;5015697;28;20045;-63
2022/06/24 01:49:14;;;;;;;2.67;2.05;;;22.70;99.90;;;;;;5015683;28;20041;-63
2022/06/24 01:51:43;;;;;;;2.25;1.92;;;22.50;99.90;;;;;;5015325;28;20026;-63
2022/06/24 01:54:09;;;;;;;1.98;1.77;;;22.60;99.90;;;;;;5015696;28;20018;-63
2022/06/24 01:56:34;;;;;;;1.83;1.73;;;22.50;99.90;;;;;;5015462;28;20468;-62
2022/06/24 01:59:00;;;;;;;1.52;1.42;;;22.50;99.90;;;;;;5015144;28;20049;-64
2022/06/24 02:01:26;;;;;;;2.50;2.30;;;22.50;99.90;;;;;;5015763;28;20080;-63
2022/06/24 02:03:53;;;;;;;1.70;1.60;;;22.70;99.90;;;;;;5015322;28;20084;-64
2022/06/24 02:06:19;;;;;;;1.55;1.42;;;22.60;99.90;;;;;;5015571;28;20101;-65
2022/06/24 02:08:45;;;;;;;2.25;1.23;;;22.70;99.90;;;;;;5015446;28;20026;-65
2022/06/24 02:14:00;;;;;;;2.08;1.83;;;22.80;99.90;;;;;;5015149;28;20025;-64
2022/06/24 02:16:26;;;;;;;2.10;2.00;;;22.80;99.90;;;;;;5015160;28;20037;-64
2022/06/24 02:18:54;;;;;;;2.05;1.75;;;22.70;99.90;;;;;;5015157;28;20038;-62
2022/06/24 02:21:23;;;;;;;1.63;1.33;;;22.50;99.90;;;;;;5015305;28;20081;-65
2022/06/24 02:23:49;;;;;;;1.75;1.50;;;22.50;99.90;;;;;;5014991;28;20034;-64
2022/06/24 02:26:15;;;;;;;1.25;1.17;;;22.60;99.90;;;;;;5015068;28;20035;-65
2022/06/24 02:28:40;;;;;;;1.20;1.10;;;22.60;99.90;;;;;;5014773;28;20026;-62
2022/06/24 02:31:06;;;;;;;1.40;1.00;;;22.70;99.90;;;;;;5014862;28;20077;-63
2022/06/24 02:33:32;;;;;;;1.55;1.30;;;22.70;99.90;;;;;;5015251;28;20022;-62
2022/06/24 02:35:58;;;;;;;1.40;1.30;;;22.80;99.90;;;;;;5015059;28;20022;-62
2022/06/24 02:38:25;;;;;;;1.67;1.58;;;22.70;99.90;;;;;;5014809;28;20032;-65
2022/06/24 02:40:52;;;;;;;1.20;1.10;;;22.60;99.90;;;;;;5014954;28;20103;-62
2022/06/24 02:43:35;;;;;;;1.40;1.30;;;22.60;99.90;;;;;;5014493;28;20030;-62
2022/06/24 02:46:03;;;;;;;2.13;1.90;;;22.70;99.90;;;;;;5014852;28;20022;-64
2022/06/24 02:48:30;;;;;;;1.90;1.80;;;22.60;99.90;;;;;;5014640;28;20026;-62
2022/06/24 02:50:58;;;;;;;1.70;1.60;;;22.50;99.90;;;;;;5014579;28;20097;-63
2022/06/24 02:53:26;;;;;;;1.95;1.73;;;22.50;99.90;;;;;;5014420;28;20018;-64
2022/06/24 02:55:54;;;;;;;2.35;1.80;;;22.50;99.90;;;;;;5014487;28;20018;-64
2022/06/24 02:58:20;;;;;;;1.90;1.73;;;22.40;99.90;;;;;;5014079;28;20409;-64
2022/06/24 03:00:46;;;;;;;1.23;1.13;;;22.50;99.90;;;;;;5014362;28;20029;-62
2022/06/24 03:03:14;;;;;;;1.50;1.40;;;22.50;99.90;;;;;;5013652;28;20117;-63
2022/06/24 03:05:40;;;;;;;1.58;1.48;;;22.50;99.90;;;;;;5014576;28;20018;-65
2022/06/24 03:08:08;;;;;;;2.42;2.22;;;22.50;99.90;;;;;;5014202;28;20065;-64
2022/06/24 03:10:34;;;;;;;2.67;2.47;;;22.50;99.90;;;;;;5014195;28;20467;-64
2022/06/24 03:12:59;;;;;;;3.00;2.10;;;22.30;99.90;;;;;;5014225;28;20037;-63
2022/06/24 03:15:25;;;;;;;1.90;1.80;;;22.30;99.90;;;;;;5014067;28;20037;-64
2022/06/24 03:17:51;;;;;;;1.75;1.65;;;22.30;99.90;;;;;;5014004;28;20037;-62
2022/06/24 03:20:17;;;;;;;1.60;1.42;;;22.40;99.90;;;;;;5013992;28;20068;-64
2022/06/24 03:22:43;;;;;;;2.10;1.20;;;22.50;99.90;;;;;;5013975;28;20029;-63
2022/06/24 03:25:09;;;;;;;1.75;1.55;;;22.50;99.90;;;;;;5013895;28;20105;-63
2022/06/24 03:27:35;;;;;;;2.00;1.73;;;22.60;99.90;;;;;;5014167;28;20026;-64
2022/06/24 03:30:02;;;;;;;2.65;2.17;;;22.60;99.90;;;;;;5013881;28;20482;-63
2022/06/24 03:32:27;;;;;;;1.70;1.60;;;22.60;99.90;;;;;;5013849;28;20061;-62
2022/06/24 03:34:53;;;;;;;1.98;1.60;;;22.50;99.90;;;;;;5013917;28;20049;-62
2022/06/24 03:37:19;;;;;;;1.70;1.60;;;22.50;99.90;;;;;;5013738;28;20432;-63
2022/06/24 03:39:44;;;;;;;1.58;1.48;;;22.50;99.90;;;;;;5013654;28;20034;-64
2022/06/24 03:42:10;;;;;;;1.70;1.50;;;22.60;99.90;;;;;;5013545;28;20097;-62
2022/06/24 03:44:36;;;;;;;1.50;1.40;;;22.60;99.90;;;;;;5013815;28;20022;-64
2022/06/24 03:47:02;;;;;;;1.52;1.42;;;22.60;99.90;;;;;;5013656;28;20022;-63
2022/06/24 03:49:28;;;;;;;1.25;1.20;;;22.70;99.90;;;;;;5013832;28;20021;-62
2022/06/24 03:51:54;;;;;;;1.58;1.48;;;22.70;99.90;;;;;;5013808;28;20026;-63
2022/06/24 03:54:20;;;;;;;1.70;1.60;;;22.70;99.90;;;;;;5013525;28;20104;-64
2022/06/24 03:56:46;;;;;;;2.58;1.40;;;22.80;99.90;;;;;;5013024;28;20037;-64
2022/06/24 03:59:12;;;;;;;3.20;2.88;;;22.80;99.90;;;;;;5013662;28;20034;-64
2022/06/24 04:01:37;;;;;;;1.83;1.73;;;22.90;99.90;;;;;;5013499;28;20025;-62
2022/06/24 04:04:03;;;;;;;1.67;1.58;;;22.80;99.90;;;;;;5013505;28;20109;-62
2022/06/24 04:06:29;;;;;;;1.85;1.70;;;22.80;99.90;;;;;;5013444;28;20026;-62
2022/06/24 04:08:55;;;;;;;1.83;1.70;;;22.90;99.90;;;;;;5013197;28;20083;-64
2022/06/24 04:11:22;;;;;;;2.13;1.92;;;22.90;99.90;;;;;;5013306;28;20496;-64
2022/06/24 04:13:48;;;;;;;3.70;2.47;;;22.80;99.90;;;;;;5013842;28;20058;-63
2022/06/24 04:16:13;;;;;;;1.83;1.73;;;22.80;99.90;;;;;;5017740;28;20018;-62
2022/06/24 04:18:39;;;;;;;2.08;1.95;;;22.70;99.90;;;;;;5017230;28;20026;-64
2022/06/24 04:21:23;;;;;;;2.30;2.10;;;22.70;99.90;;;;;;5017649;28;20022;-62
2022/06/24 04:23:49;;;;;;;2.30;2.20;;;22.60;99.90;;;;;;5016998;28;20475;-62
2022/06/24 04:26:15;;;;;;;2.60;2.30;;;22.60;99.90;;;;;;5017586;28;20376;-64
2022/06/24 04:28:42;;;;;;;2.35;2.15;;;22.50;99.90;;;;;;5017332;28;20021;-62
2022/06/24 04:31:07;;;;;;;3.80;3.40;;;22.60;99.90;;;;;;5017151;28;20023;-65
2022/06/24 04:33:33;;;;;;;3.13;2.83;;;22.70;99.90;;;;;;5017352;28;20113;-62
2022/06/24 04:35:59;;;;;;;3.05;2.50;;;22.60;99.90;;;;;;5017356;28;20022;-63
2022/06/24 04:38:24;;;;;;;2.67;2.30;;;22.60;99.90;;;;;;5017099;28;20465;-63
2022/06/24 04:40:50;;;;;;;2.92;2.70;;;22.60;99.90;;;;;;5017220;28;20029;-63
2022/06/24 04:43:16;;;;;;;2.30;2.17;;;22.60;99.90;;;;;;5017209;28;20064;-65
2022/06/24 04:45:44;;;;;;;3.15;2.55;;;22.60;99.90;;;;;;5016934;28;20076;-64
2022/06/24 04:48:11;;;;;;;2.55;2.35;;;22.60;99.90;;;;;;5017089;28;20432;-63
2022/06/24 04:50:36;;;;;;;3.38;2.53;;;22.80;99.90;;;;;;5017055;28;20045;-62
2022/06/24 04:53:03;;;;;;;2.88;2.05;;;22.80;99.90;;;;;;5016674;28;20061;-63
2022/06/24 04:55:29;;;;;;;1.45;1.35;;;22.90;99.90;;;;;;5016917;28;20025;-64
2022/06/24 04:57:54;;;;;;;1.70;1.60;;;22.90;99.90;;;;;;5016418;28;20056;-64
2022/06/24 05:00:20;;;;;;;1.60;1.50;;;23.00;99.90;;;;;;5016275;28;20026;-64
2022/06/24 05:02:46;;;;;;;1.65;1.45;;;23.00;99.90;;;;;;5016316;28;20022;-63
2022/06/24 05:05:12;;;;;;;3.35;2.50;;;23.00;99.90;;;;;;5015808;28;20519;-63
2022/06/24 05:07:38;;;;;;;12.55;11.45;;;23.00;99.90;;;;;;5013639;28;20033;-69
2022/06/24 05:10:05;;;;;;;2.53;2.33;;;22.90;99.90;;;;;;5007015;28;20445;-69
2022/06/24 05:12:31;;;;;;;2.03;1.90;;;22.80;99.90;;;;;;5005628;28;20029;-67
2022/06/24 05:14:57;;;;;;;2.80;1.92;;;22.90;99.90;;;;;;5005821;28;20022;-68
2022/06/24 05:17:23;;;;;;;2.45;1.85;;;23.10;99.90;;;;;;5006929;28;20068;-67
2022/06/24 05:19:50;;;;;;;2.05;1.73;;;23.20;99.90;;;;;;5005261;28;20034;-67
2022/06/24 05:22:15;;;;;;;1.80;1.70;;;23.30;99.90;;;;;;5005664;28;20508;-67
2022/06/24 05:24:41;;;;;;;1.60;1.50;;;23.50;99.90;;;;;;5006815;28;20019;-65
2022/06/24 05:27:07;;;;;;;2.33;2.05;;;23.50;99.90;;;;;;5002930;28;20034;-67
2022/06/24 05:29:32;;;;;;;2.00;1.88;;;23.50;99.90;;;;;;4994408;28;20021;-66
2022/06/24 05:31:58;;;;;;;1.83;1.50;;;23.40;99.90;;;;;;4994367;28;20153;-66
2022/06/24 05:34:24;;;;;;;1.85;1.75;;;23.40;99.90;;;;;;4994648;28;20023;-67
2022/06/24 05:36:49;;;;;;;2.60;2.05;;;23.50;99.90;;;;;;4994321;28;20100;-67
2022/06/24 05:39:15;;;;;;;2.17;1.88;;;23.60;99.90;;;;;;4994339;28;20038;-65
2022/06/24 05:41:41;;;;;;;1.73;1.63;;;23.70;99.90;;;;;;4994312;28;20034;-66
2022/06/24 05:44:08;;;;;;;2.65;1.92;;;23.80;99.90;;;;;;4996064;28;20498;-65
2022/06/24 05:46:34;;;;;;;2.30;2.10;;;24.10;99.90;;;;;;4995635;28;20046;-66
2022/06/24 05:49:00;;;;;;;2.40;2.20;;;24.20;99.90;;;;;;4996365;28;20427;-65
2022/06/24 05:51:27;;;;;;;1.90;1.80;;;24.50;99.90;;;;;;4996057;28;20572;-66
2022/06/24 05:56:37;;;;;;;2.97;2.40;;;24.80;99.90;;;;;;4998412;28;20037;-63
2022/06/24 05:59:04;;;;;;;2.20;2.00;;;24.90;99.90;;;;;;4995871;28;20449;-64
2022/06/24 06:01:30;;;;;;;2.15;1.75;;;24.90;99.90;;;;;;5012073;28;20026;-68
2022/06/24 06:03:56;;;;;;;2.78;2.50;;;25.00;99.90;;;;;;5002910;28;20034;-67
2022/06/24 06:06:23;;;;;;;2.53;2.33;;;25.10;99.90;;;;;;4996543;28;20477;-67
2022/06/24 06:08:49;;;;;;;2.10;2.00;;;25.20;99.90;;;;;;5015377;28;20033;-66
2022/06/24 06:11:19;;;;;;;2.40;2.20;;;25.30;99.90;;;;;;5007734;28;20030;-66
2022/06/24 06:13:47;;;;;;;4.18;3.13;;;25.30;99.90;;;;;;5009966;28;20125;-65
2022/06/24 06:16:13;;;;;;;2.17;2.05;;;25.40;99.90;;;;;;5011380;28;20032;-66
2022/06/24 06:18:39;;;;;;;2.72;2.40;;;25.40;99.90;;;;;;5012752;28;20037;-64
2022/06/24 06:21:06;;;;;;;3.47;3.00;;;25.50;99.90;;;;;;5015509;28;20030;-63
2022/06/24 06:23:33;;;;;;;4.38;3.30;;;25.50;99.90;;;;;;5013687;28;20095;-64
2022/06/24 06:26:01;;;;;;;3.20;3.00;;;25.50;99.90;;;;;;5008465;28;20049;-65
2022/06/24 06:28:26;;;;;;;3.47;3.17;;;25.40;99.90;;;;;;4993528;28;20030;-64
2022/06/24 06:30:58;;;;;;;3.05;2.40;;;25.40;99.90;;;;;;4999384;28;20033;-64
2022/06/24 06:33:24;;;;;;;2.75;2.55;;;25.40;99.90;;;;;;4999420;28;20018;-64
2022/06/24 06:35:50;;;;;;;3.00;2.78;;;25.50;99.90;;;;;;5012220;28;20109;-66
2022/06/24 06:38:17;;;;;;;2.88;2.30;;;25.70;99.90;;;;;;5010275;28;20117;-67
2022/06/24 06:40:43;;;;;;;2.17;2.00;;;25.80;99.90;;;;;;5009955;28;20567;-65
2022/06/24 06:43:09;;;;;;;2.85;2.65;;;25.90;99.90;;;;;;5011742;28;20100;-67
2022/06/24 06:45:37;;;;;;;3.05;2.53;;;26.00;99.90;;;;;;5010130;28;20041;-69
2022/06/24 06:48:03;;;;;;;2.47;2.38;;;26.10;99.80;;;;;;5011435;28;20034;-67
2022/06/24 06:50:29;;;;;;;2.50;2.30;;;26.20;99.50;;;;;;5011015;28;20034;-66
2022/06/24 06:52:55;;;;;;;2.67;2.47;;;26.30;99.40;;;;;;5012477;28;20018;-64
2022/06/24 06:55:21;;;;;;;2.70;2.50;;;26.40;99.00;;;;;;5014319;28;20022;-64
2022/06/24 06:57:47;;;;;;;2.63;2.40;;;26.50;99.00;;;;;;5011747;28;20072;-65
2022/06/24 07:00:14;;;;;;;3.20;2.85;;;26.70;99.20;;;;;;5011316;28;20113;-62
2022/06/24 07:02:40;;;;;;;2.95;2.75;;;26.70;97.10;;;;;;5011718;28;20045;-64
2022/06/24 07:05:06;;;;;;;3.22;2.95;;;26.80;97.40;;;;;;5010755;28;20477;-68
2022/06/24 07:07:32;;;;;;;2.53;2.33;;;27.00;97.60;;;;;;5011572;28;20026;-64
2022/06/24 07:09:58;;;;;;;3.25;2.95;;;27.30;94.80;;;;;;5011428;28;20033;-66
2022/06/24 07:12:25;;;;;;;2.42;2.00;;;27.30;94.30;;;;;;5012011;28;20088;-62
2022/06/24 07:14:51;;;;;;;3.10;2.90;;;27.40;95.00;;;;;;5012949;28;20053;-66
2022/06/24 07:17:17;;;;;;;2.97;2.78;;;27.40;93.60;;;;;;5012973;28;20070;-68
2022/06/24 07:19:44;;;;;;;2.97;2.78;;;27.40;94.80;;;;;;5011860;28;20388;-67
2022/06/24 07:22:10;;;;;;;3.03;2.83;;;27.50;93.80;;;;;;5012301;28;20051;-64
2022/06/24 07:24:36;;;;;;;3.33;3.10;;;27.60;94.10;;;;;;5012877;28;20549;-64
2022/06/24 07:27:03;;;;;;;2.35;2.25;;;27.70;93.50;;;;;;5012683;28;20032;-64
2022/06/24 07:29:33;;;;;;;3.78;2.47;;;27.90;93.40;;;;;;5012888;28;20026;-64
2022/06/24 07:31:59;;;;;;;3.20;2.90;;;28.00;94.20;;;;;;5013390;28;20034;-64
2022/06/24 07:34:26;;;;;;;3.10;2.90;;;28.10;90.60;;;;;;5012648;28;20104;-65
2022/06/24 07:37:04;;;;;;;2.72;2.45;;;28.00;91.20;;;;;;5013138;28;20100;-65
2022/06/24 07:43:32;;;;;;;3.03;2.80;;;28.20;89.70;;;;;;5013374;28;20064;-66
2022/06/24 07:52:24;;;;;;;2.80;2.60;;;30.30;81.40;;;;;;4991617;28;20158;-67
2022/06/24 07:56:56;;;;;;;2.63;2.42;;;33.00;71.20;;;;;;4993668;28;20109;-67
2022/06/24 07:57:35;;;;;;;2.60;2.50;;;34.80;69.90;;;;;;4998873;28;20504;-66
2022/06/24 08:00:03;;;;;;;2.55;2.22;;;35.80;59.30;;;;;;4996068;28;20050;-66
2022/06/24 08:02:28;;;;;;;2.55;2.45;;;36.70;56.20;;;;;;5016987;28;20030;-71
2022/06/24 08:04:54;;;;;;;2.90;2.70;;;37.60;57.00;;;;;;5011932;28;20053;-67
2022/06/24 08:07:20;;;;;;;2.90;2.70;;;38.30;53.40;;;;;;5000993;28;20413;-66
2022/06/24 08:09:45;;;;;;;2.90;2.40;;;38.70;52.50;;;;;;4992080;28;20034;-64
2022/06/24 08:12:11;;;;;;;2.40;2.30;;;39.50;49.30;;;;;;4993342;28;20026;-67
2022/06/24 08:14:36;;;;;;;2.28;2.17;;;40.00;48.80;;;;;;5000614;28;20560;-67
2022/06/24 08:17:02;;;;;;;2.42;2.10;;;40.20;46.20;;;;;;4998896;28;20026;-67
2022/06/24 08:19:28;;;;;;;1.95;1.85;;;40.30;45.80;;;;;;4993735;28;20034;-68
2022/06/24 08:21:54;;;;;;;3.80;2.08;;;40.70;46.80;;;;;;4993799;28;20034;-67
2022/06/24 08:24:19;;;;;;;2.85;2.75;;;40.40;43.30;;;;;;4993639;28;20073;-67
2022/06/24 08:26:45;;;;;;;2.65;2.55;;;40.00;45.60;;;;;;4998644;28;20145;-67
2022/06/24 08:29:11;;;;;;;2.10;1.92;;;40.00;44.80;;;;;;5012952;28;20045;-68
2022/06/24 08:31:37;;;;;;;2.08;1.98;;;40.00;42.90;;;;;;4994386;28;20394;-65
2022/06/24 08:34:03;;;;;;;2.50;2.30;;;40.10;43.80;;;;;;4992794;28;20061;-66
2022/06/24 08:36:28;;;;;;;3.20;1.80;;;39.90;41.90;;;;;;4993364;28;20097;-64
2022/06/24 08:38:55;;;;;;;1.88;1.70;;;39.90;39.10;;;;;;4993114;28;20026;-65
2022/06/24 08:41:23;;;;;;;2.03;1.80;;;39.60;39.00;;;;;;4991802;28;20389;-68
2022/06/24 08:43:55;;;;;;;2.50;2.30;;;39.00;38.30;;;;;;4991241;28;20026;-66
2022/06/24 08:46:21;;;;;;;2.50;2.30;;;39.10;40.10;;;;;;5009487;28;20112;-67
2022/06/24 08:48:48;;;;;;;1.77;1.67;;;39.90;40.90;;;;;;5010995;28;20473;-67
2022/06/24 08:51:15;;;;;;;1.77;1.67;;;40.30;38.30;;;;;;5011964;28;20041;-64
2022/06/24 08:53:43;;;;;;;1.95;1.85;;;40.20;36.20;;;;;;5012426;28;20041;-65
2022/06/24 08:56:09;;;;;;;1.85;1.75;;;40.00;36.70;;;;;;5012566;28;20030;-65
2022/06/24 08:58:36;;;;;;;1.70;1.60;;;39.90;37.50;;;;;;5008980;28;20049;-66
2022/06/24 09:01:02;;;;;;;2.55;1.70;;;40.10;37.80;;;;;;5003871;28;20030;-66
2022/06/24 09:03:28;;;;;;;1.00;1.00;;;40.20;38.70;;;;;;5016870;28;20054;-65
2022/06/24 09:05:53;;;;;;;1.20;1.10;;;40.30;37.50;;;;;;5016016;28;20427;-65
2022/06/24 09:11:42;;;;;;;1.25;1.13;;;40.00;37.80;;;;;;5013796;28;20077;-66
2022/06/24 09:14:09;;;;;;;1.23;1.13;;;39.80;36.60;;;;;;5006362;28;20036;-64
2022/06/24 09:16:38;;;;;;;2.15;1.17;;;39.60;37.50;;;;;;5010083;28;20026;-69
2022/06/24 09:19:06;;;;;;;1.30;1.02;;;39.40;40.40;;;;;;5015845;28;20053;-66
2022/06/24 09:21:41;;;;;;;1.92;1.27;;;39.60;39.80;;;;;;5010056;28;20069;-66
2022/06/24 09:24:08;;;;;;;2.15;1.38;;;39.60;37.90;;;;;;5006141;28;20046;-65
2022/06/24 09:26:39;;;;;;;1.42;1.10;;;39.20;40.20;;;;;;5013344;28;20358;-74
2022/06/24 09:29:07;;;;;;;1.00;1.00;;;39.60;37.80;;;;;;5015526;28;20392;-64
2022/06/24 09:31:34;;;;;;;1.52;1.17;;;39.30;39.70;;;;;;5003627;28;20274;-65
2022/06/24 09:34:10;;;;;;;1.58;1.08;;;39.30;38.20;;;;;;5008005;28;20068;-66
2022/06/24 09:36:37;;;;;;;1.30;1.10;;;39.40;37.80;;;;;;5009530;28;20041;-64
2022/06/24 09:39:12;;;;;;;1.25;1.15;;;39.40;37.50;;;;;;5004582;28;20084;-65
2022/06/24 09:41:47;;;;;;;1.10;1.10;;;39.40;39.50;;;;;;5004074;28;20105;-65
2022/06/24 09:44:13;;;;;;;1.02;1.02;;;39.60;40.00;;;;;;5008682;28;20022;-67
2022/06/24 09:46:39;;;;;;;1.20;1.10;;;39.60;38.30;;;;;;5019127;28;20109;-65
2022/06/24 09:49:07;;;;;;;2.50;1.42;;;39.70;39.10;;;;;;5006827;28;20117;-65
2022/06/24 09:51:34;;;;;;;1.70;1.60;;;40.20;40.00;;;;;;5005628;28;20068;-64
2022/06/24 09:54:00;;;;;;;1.40;1.30;;;39.70;39.40;;;;;;5013938;28;20377;-67
2022/06/24 09:56:28;;;;;;;1.73;1.33;;;39.10;41.20;;;;;;5013824;28;20057;-64
2022/06/24 10:01:41;;;;;;;1.27;1.17;;;39.30;42.50;;;;;;5014179;28;20072;-66
2022/06/24 10:04:20;;;;;;;1.40;1.30;;;39.60;40.90;;;;;;5014696;28;20022;-65
2022/06/24 10:06:48;;;;;;;1.52;1.42;;;39.70;41.70;;;;;;5015274;28;20030;-66
2022/06/24 10:09:18;;;;;;;1.52;1.42;;;39.40;43.30;;;;;;5014973;28;20022;-65
2022/06/24 10:11:46;;;;;;;1.90;1.80;;;39.70;41.60;;;;;;5003031;28;20030;-66
2022/06/24 10:14:12;;;;;;;1.65;1.55;;;39.10;42.10;;;;;;4992950;28;20054;-64
2022/06/24 10:16:41;;;;;;;2.25;1.60;;;38.60;41.00;;;;;;4993677;28;20496;-65
2022/06/24 10:19:09;;;;;;;1.60;1.50;;;38.50;44.40;;;;;;4993193;28;20031;-67
2022/06/24 10:21:36;;;;;;;1.60;1.50;;;38.80;41.80;;;;;;4994436;28;20029;-66
2022/06/24 10:24:13;;;;;;;2.90;1.70;;;39.30;42.60;;;;;;4993685;28;20322;-63
2022/06/24 10:26:42;;;;;;;1.65;1.55;;;39.30;40.60;;;;;;4992784;28;20033;-65
2022/06/24 10:29:07;;;;;;;1.40;1.30;;;39.00;40.40;;;;;;4993638;28;20061;-66
2022/06/24 10:31:45;;;;;;;3.50;1.92;;;39.10;41.10;;;;;;4994667;28;20473;-68
2022/06/24 10:34:22;;;;;;;2.20;1.58;;;38.70;41.20;;;;;;4993926;28;20026;-67
2022/06/24 10:37:22;;;;;;;2.15;1.55;;;38.40;41.80;;;;;;4994825;28;20436;-71
2022/06/24 10:39:51;;;;;;;1.40;1.30;;;37.80;40.30;;;;;;4995171;28;20027;-69
2022/06/24 10:42:24;;;;;;;1.30;1.20;;;37.60;41.70;;;;;;4993840;28;20042;-68
2022/06/24 10:45:00;;;;;;;2.30;1.30;;;38.20;41.60;;;;;;4995039;28;20054;-67
2022/06/24 10:47:33;;;;;;;2.40;1.27;;;38.70;42.80;;;;;;4995132;28;20022;-68
2022/06/24 10:50:00;;;;;;;1.38;1.10;;;38.90;39.20;;;;;;4995253;28;20066;-68
2022/06/24 10:52:29;;;;;;;2.22;1.40;;;39.10;42.90;;;;;;4995059;28;20033;-70
2022/06/24 10:55:16;;;;;;;1.60;1.20;;;39.20;39.20;;;;;;4994981;28;20060;-66
2022/06/24 10:58:07;;;;;;;2.03;1.23;;;39.20;42.60;;;;;;4994780;28;20049;-67
2022/06/24 11:00:48;;;;;;;1.20;1.10;;;39.20;39.90;;;;;;4996521;28;20062;-64
2022/06/24 11:03:23;;;;;;;2.67;1.17;;;39.20;42.70;;;;;;4994286;28;20508;-65
2022/06/24 11:05:51;;;;;;;1.42;1.33;;;39.50;43.90;;;;;;4994121;28;20018;-67
2022/06/24 11:08:21;;;;;;;2.63;1.20;;;39.50;41.30;;;;;;5007800;28;20559;-65
2022/06/24 11:10:48;;;;;;;1.30;1.10;;;39.50;39.00;;;;;;5013597;28;20484;-63
2022/06/24 11:13:14;;;;;;;0.90;0.90;;;39.50;40.40;;;;;;5009827;28;20116;-64
2022/06/24 11:15:55;;;;;;;0.90;0.90;;;39.70;41.10;;;;;;5001506;28;20033;-63
2022/06/24 11:18:30;;;;;;;1.02;0.93;;;39.80;40.00;;;;;;5008911;28;20030;-65
2022/06/24 11:21:17;;;;;;;0.80;0.80;;;40.00;41.30;;;;;;5011794;28;20026;-66
2022/06/24 11:23:45;;;;;;;0.95;0.95;;;40.10;39.90;;;;;;5009019;28;20791;-62
2022/06/24 11:26:14;;;;;;;0.88;0.88;;;40.20;40.90;;;;;;5006652;28;20014;-61
2022/06/24 11:28:41;;;;;;;1.15;1.00;;;40.40;40.70;;;;;;5008309;28;20068;-61
2022/06/24 11:31:29;;;;;;;2.15;1.30;;;40.60;37.60;;;;;;5008209;28;20026;-61
2022/06/24 11:34:02;;;;;;;1.88;1.00;;;40.50;37.70;;;;;;5012448;28;20054;-63
2022/06/24 11:36:31;;;;;;;1.83;0.90;;;40.10;37.20;;;;;;5006290;28;20034;-64
2022/06/24 11:38:59;;;;;;;1.52;1.00;;;39.60;38.50;;;;;;5011162;28;20376;-63
2022/06/24 11:41:29;;;;;;;1.92;1.35;;;39.40;37.90;;;;;;5012402;28;20148;-64
2022/06/24 11:43:55;;;;;;;1.23;1.00;;;39.00;37.80;;;;;;4992094;28;20042;-64
2022/06/24 11:46:20;;;;;;;1.48;1.02;;;39.30;40.10;;;;;;5011326;28;20484;-64
2022/06/24 11:48:46;;;;;;;1.83;1.30;;;39.50;42.20;;;;;;5011481;28;20372;-61
2022/06/24 11:51:22;;;;;;;3.20;1.45;;;39.80;38.30;;;;;;5011533;28;20030;-65
2022/06/24 11:54:03;;;;;;;3.33;1.35;;;39.60;37.80;;;;;;5011420;28;20486;-60
2022/06/24 11:56:32;;;;;;;1.35;1.10;;;39.30;38.80;;;;;;5012970;28;20022;-63
2022/06/24 11:59:02;;;;;;;2.13;1.23;;;39.40;38.70;;;;;;5012293;28;20557;-62
2022/06/24 12:01:29;;;;;;;2.80;1.48;;;39.30;40.60;;;;;;5012485;28;20081;-61
2022/06/24 12:03:58;;;;;;;2.15;1.55;;;38.90;38.40;;;;;;5012661;28;20034;-60
2022/06/24 12:06:24;;;;;;;3.72;1.60;;;38.90;38.00;;;;;;5013341;28;20073;-61
2022/06/24 12:08:51;;;;;;;2.85;1.30;;;39.10;40.30;;;;;;5013253;28;20434;-61
2022/06/24 12:11:21;;;;;;;1.20;1.00;;;39.20;40.30;;;;;;5012935;28;20069;-64
2022/06/24 12:14:04;;;;;;;2.08;1.30;;;39.20;38.80;;;;;;5002579;28;20029;-65
2022/06/24 12:17:02;;;;;;;2.95;1.40;;;39.10;39.80;;;;;;5012644;28;20034;-64
2022/06/24 12:19:31;;;;;;;1.30;1.20;;;39.00;39.80;;;;;;5012645;28;20124;-64
2022/06/24 12:22:10;;;;;;;3.22;1.30;;;39.10;40.30;;;;;;5012577;28;20528;-64
2022/06/24 12:24:37;;;;;;;3.75;1.40;;;39.30;39.70;;;;;;5013563;28;20080;-64
2022/06/24 12:27:04;;;;;;;2.38;1.42;;;39.40;40.20;;;;;;5012597;28;20026;-64
2022/06/24 12:29:35;;;;;;;2.60;1.45;;;39.30;39.40;;;;;;5013075;28;20026;-64
2022/06/24 12:32:02;;;;;;;;;;;39.40;39.60;;;;;;5013563;28;20025;-64
2022/06/24 12:34:34;;;;;;;3.88;1.80;;;39.40;39.20;;;;;;5012835;28;19913;-64
2022/06/24 12:37:11;;;;;;;4.18;1.70;;;39.40;40.00;;;;;;5012882;28;20029;-64
2022/06/24 12:39:41;;;;;;;2.55;1.58;;;39.10;40.50;;;;;;5016401;28;20037;-64
2022/06/24 12:42:08;;;;;;;2.30;1.70;;;38.90;38.70;;;;;;5016714;28;20038;-61
2022/06/24 12:44:47;;;;;;;3.28;1.60;;;39.00;39.10;;;;;;5016936;28;20038;-62
2022/06/24 12:53:00;;;;;;;1.98;1.10;;;38.70;39.90;;;;;;5016621;28;20091;-61
2022/06/24 12:55:28;;;;;;;3.20;1.75;;;38.90;44.20;;;;;;5016599;28;20385;-61
2022/06/24 12:57:54;;;;;;;1.52;1.40;;;39.00;40.70;;;;;;5016451;28;20497;-61
2022/06/24 13:00:20;;;;;;;3.38;1.70;;;38.90;44.30;;;;;;5016963;28;20112;-62
2022/06/24 13:02:52;;;;;;;2.38;1.50;;;38.90;42.50;;;;;;5016556;28;20030;-61
2022/06/24 13:05:19;;;;;;;4.28;1.50;;;39.00;40.70;;;;;;5016639;28;20022;-61
2022/06/24 13:07:45;;;;;;;3.40;1.60;;;39.10;41.50;;;;;;5016753;28;20033;-61
2022/06/24 13:10:11;;;;;;;3.17;1.42;;;39.00;41.80;;;;;;5016483;28;20496;-61
2022/06/24 13:12:41;;;;;;;3.78;1.67;;;38.80;40.80;;;;;;5016717;28;20041;-61
2022/06/24 13:15:09;;;;;;;3.13;1.80;;;38.90;40.90;;;;;;5016496;28;20144;-62
2022/06/24 13:17:37;;;;;;;5.28;2.00;;;38.90;41.20;;;;;;5016315;28;20109;-62
2022/06/24 13:20:05;;;;;;;3.15;1.52;;;38.80;40.80;;;;;;5016228;28;20030;-61
2022/06/24 13:22:31;;;;;;;2.83;1.80;;;38.80;41.90;;;;;;5016136;28;20484;-61